Three Bridges, Louisiana
Current Conditions -  °F | °C
As of 6:35 AM on Monday 26 Jan 2015 (Local Time) from KIER Reporting Station
Clear Clear  
Wind Chill: 36°   Ceiling: Unl
Heat Index: 41°   Visibility: 10mi
Dew Point: 34°   Wind: 8mph
Humidity: 75%   Direction: 300°WNW
Pressure: 30.17"   Gusts: NA
Location:  31.6668°N, 92.8023°W
Report Text: KIER 261235Z AUTO 30007KT 10SM CLR 05/01 A3017 RMK AO2 T00510010
Loading
Personal Weather Stations






























Interactive Weather Map New forecast layout! Learn more

10-Day Weather Forecast

Advertisements
Track Severe Weather on mobile